Kodak, Tennessee
Current Conditions -  °F | °C
As of 1:35 AM on Thursday 27 Nov 2014 (Local Time) from KGKT Reporting Station
Overcast Overcast  
Wind Chill: 34°   Ceiling: 2000
Heat Index: 39°   Visibility: 4mi
Dew Point: 36°   Wind: 8mph
Humidity: 87%   Direction: 300°WNW
Pressure: 29.99"   Gusts: NA
Location:  35.97°N, 83.63°W
Report Text: KGKT 270635Z AUTO 30007KT 4SM FEW014 BKN020 OVC046 04/02 A2999 RMK
Loading
Personal Weather Stations






























Interactive Weather Map New forecast layout! Learn more

10-Day Weather Forecast

Advertisements
Track Severe Weather on mobile